Belle Isle Sound — CSL5116 — position and weather

sailwx.info

Track history (hours):
 
Tides and Currents Weather Stations Pressure Air Temp Water Temp Dewpoint Dewpoint Depression Visibility Wind Speed Wind Dir Waves Ship Positions

Belle Isle Sound

Last reported at 2017-Oct-19 10:58 UTC. Time now 2017-Oct-19 11:26 UTC.
Position N 50°53' W 127°03'.

; draft 2.5 m.

Type: Tug. MMSI: 316020742.

Date/timePositionNaut miles runAvg speedWind from/ knotsBaromVisibWave heightAir tempDewpointWater temp
2017-Oct-19 10:58N 50°53' W 127°03'0 0.0
2017-Oct-19 09:59N 50°53' W 127°03'0 0.0
2017-Oct-19 09:22N 50°53' W 127°03'0 0.0
2017-Oct-19 08:57N 50°53' W 127°03'0 0.0
2017-Oct-19 08:11N 50°53' W 127°03'0 0.0
2017-Oct-19 08:00N 50°53' W 127°03'0 0.0
2017-Oct-19 07:30N 50°53' W 127°03'0 0.0
2017-Oct-19 07:00N 50°53' W 127°03'0 0.0
2017-Oct-19 06:30N 50°53' W 127°03'0 0.0
2017-Oct-19 05:57N 50°53' W 127°03'0 0.0
2017-Oct-19 05:29N 50°53' W 127°03'0 0.0
2017-Oct-19 04:25N 50°53' W 127°03'0 0.0
2017-Oct-19 02:51N 50°53' W 127°03'0 0.1
2017-Oct-19 02:30N 50°53' W 127°03'0 0.0
2017-Oct-19 02:00N 50°53' W 127°03'0 0.0
2017-Oct-19 01:30N 50°53' W 127°03'0 0.0
2017-Oct-19 01:00N 50°53' W 127°03'0 0.0
2017-Oct-19 00:29N 50°53' W 127°03'0 0.0
2017-Oct-19 00:00N 50°53' W 127°03'0 0.0
2017-Oct-18 23:30N 50°53' W 127°03'2 4.2
2017-Oct-18 22:59N 50°54' W 126°59'4 6.5
2017-Oct-18 22:27N 50°54' W 126°54'17 0.7
2017-Oct-17 21:48N 50°45' W 126°30'1 0.9
2017-Oct-17 20:28N 50°46' W 126°29'47 2.3
2017-Oct-16 23:52N 50°20' W 125°27'4 9.0
2017-Oct-16 23:26N 50°17' W 125°24'4 8.9
2017-Oct-16 23:00N 50°13' W 125°23'4 8.3
2017-Oct-16 22:30N 50°09' W 125°22'2 3.9
2017-Oct-16 22:00N 50°07' W 125°23'0 0.0
2017-Oct-16 21:30N 50°07' W 125°23'0 0.0
2017-Oct-16 21:00N 50°07' W 125°23'0 0.0
2017-Oct-16 20:30N 50°07' W 125°23'0 0.0
2017-Oct-16 20:00N 50°07' W 125°23'0 0.0
2017-Oct-16 19:30N 50°07' W 125°23'0 0.0
2017-Oct-16 19:00N 50°07' W 125°23'0 0.0
2017-Oct-16 18:30N 50°07' W 125°23'0 0.0
2017-Oct-16 18:00N 50°07' W 125°23'0 0.0
2017-Oct-16 17:30N 50°07' W 125°23'0 0.0
2017-Oct-16 17:00N 50°07' W 125°23'0 0.0
2017-Oct-16 16:30N 50°07' W 125°23'0 0.0
2017-Oct-16 16:00N 50°07' W 125°23'0 0.0
2017-Oct-16 15:30N 50°07' W 125°23'1 2.3
2017-Oct-16 15:00N 50°08' W 125°21'5 4.9
2017-Oct-16 14:00N 50°12' W 125°22'3 6.5
2017-Oct-16 13:28N 50°16' W 125°23'3 6.4
2017-Oct-16 13:00N 50°19' W 125°25'6 0.1
2017-Oct-14 21:37N 50°22' W 125°33'4 9.3
2017-Oct-14 21:11N 50°20' W 125°27'1 8.2
2017-Oct-14 21:00N 50°19' W 125°25'4 8.5
2017-Oct-14 20:30N 50°15' W 125°23'4 8.1
2017-Oct-14 20:00N 50°11' W 125°22'3 6.5
2017-Oct-14 19:30N 50°08' W 125°21'1 2.0
2017-Oct-14 19:00N 50°07' W 125°23'0 0.0
2017-Oct-14 18:30N 50°07' W 125°23'0 0.0
2017-Oct-14 18:00N 50°07' W 125°23'0 0.0
2017-Oct-14 17:30N 50°07' W 125°23'0 0.0
2017-Oct-14 17:00N 50°07' W 125°23'0 0.0
2017-Oct-14 16:30N 50°07' W 125°23'0 0.1
2017-Oct-14 16:00N 50°07' W 125°23'0 0.0
2017-Oct-14 15:30N 50°07' W 125°23'0 0.0
2017-Oct-14 15:00N 50°07' W 125°23'0 0.0
2017-Oct-14 14:30N 50°07' W 125°23'0 0.2
2017-Oct-14 14:00N 50°07' W 125°23'0 0.1
2017-Oct-14 13:30N 50°07' W 125°23'0 0.0
2017-Oct-14 13:00N 50°07' W 125°23'0 0.0
2017-Oct-14 12:30N 50°07' W 125°23'0 0.0
2017-Oct-14 12:00N 50°07' W 125°23'0 0.0
2017-Oct-14 11:30N 50°07' W 125°23'0 0.0
2017-Oct-14 11:00N 50°07' W 125°23'0 0.0
2017-Oct-14 10:30N 50°07' W 125°23'0 0.0
2017-Oct-14 10:00N 50°07' W 125°23'0 0.0
2017-Oct-14 09:30N 50°07' W 125°23'0 0.0
2017-Oct-14 09:00N 50°07' W 125°23'0 0.0
2017-Oct-14 08:30N 50°07' W 125°23'0 0.0
2017-Oct-14 08:00N 50°07' W 125°23'0 0.0
2017-Oct-14 07:30N 50°07' W 125°23'0 0.0
2017-Oct-14 07:00N 50°07' W 125°23'0 0.0
2017-Oct-14 06:30N 50°07' W 125°23'0 0.0
2017-Oct-14 06:00N 50°07' W 125°23'0 0.0
2017-Oct-14 05:30N 50°07' W 125°23'0 0.0
2017-Oct-14 05:00N 50°07' W 125°23'0 0.0
2017-Oct-14 04:30N 50°07' W 125°23'0 0.0
2017-Oct-14 04:00N 50°07' W 125°23'0 0.0
2017-Oct-14 03:30N 50°07' W 125°23'0 0.0
2017-Oct-14 03:00N 50°07' W 125°23'0 0.0
2017-Oct-14 02:30N 50°07' W 125°23'0 0.0
2017-Oct-14 02:00N 50°07' W 125°23'0 0.0
2017-Oct-14 01:30N 50°07' W 125°23'0 0.0
2017-Oct-14 00:58N 50°07' W 125°23'0 0.0
2017-Oct-14 00:28N 50°07' W 125°23'0 0.0
2017-Oct-14 00:00N 50°07' W 125°23'0 0.0
2017-Oct-13 23:30N 50°07' W 125°23'0 0.0
2017-Oct-13 23:00N 50°07' W 125°23'0 0.0
2017-Oct-13 22:30N 50°07' W 125°23'0 0.0
2017-Oct-13 22:00N 50°07' W 125°23'0 0.0
2017-Oct-13 21:30N 50°07' W 125°23'0 0.0
2017-Oct-13 21:00N 50°07' W 125°23'0 0.0
2017-Oct-13 20:30N 50°07' W 125°23'0 0.0
2017-Oct-13 20:00N 50°07' W 125°23'0 0.0
2017-Oct-13 19:30N 50°07' W 125°23'0 0.0
2017-Oct-13 19:00N 50°07' W 125°23'0 0.0
2017-Oct-13 18:30N 50°07' W 125°23'0 0.0
2017-Oct-13 18:00N 50°07' W 125°23'0 0.0
2017-Oct-13 17:30N 50°07' W 125°23'0 0.0
2017-Oct-13 17:00N 50°07' W 125°23'0 0.0
2017-Oct-13 16:30N 50°07' W 125°23'0 0.0
2017-Oct-13 16:00N 50°07' W 125°23'0 0.0
2017-Oct-13 15:30N 50°07' W 125°23'0 0.0
2017-Oct-13 15:00N 50°07' W 125°23'0 0.0
2017-Oct-13 14:30N 50°07' W 125°23'0 0.0
2017-Oct-13 14:00N 50°07' W 125°23'0 0.0
2017-Oct-13 13:30N 50°07' W 125°23'0 0.0
2017-Oct-13 13:00N 50°07' W 125°23'0 0.0
2017-Oct-13 12:30N 50°07' W 125°23'0 0.0
2017-Oct-13 12:00N 50°07' W 125°23'0 0.0
2017-Oct-13 11:30N 50°07' W 125°23'0 0.0
2017-Oct-13 11:00N 50°07' W 125°23'0 0.0
2017-Oct-13 10:30N 50°07' W 125°23'0 0.0
2017-Oct-13 10:00N 50°07' W 125°23'0 0.0
2017-Oct-13 09:30N 50°07' W 125°23'0 0.0
2017-Oct-13 09:00N 50°07' W 125°23'0 0.0
2017-Oct-13 08:30N 50°07' W 125°23'0 0.0
2017-Oct-13 08:00N 50°07' W 125°23'0 0.0
2017-Oct-13 07:30N 50°07' W 125°23'0 0.0
2017-Oct-13 07:00N 50°07' W 125°23'0 0.0
2017-Oct-13 06:30N 50°07' W 125°23'0 0.0
2017-Oct-13 06:00N 50°07' W 125°23'0 0.0
2017-Oct-13 05:30N 50°07' W 125°23'0 0.0
2017-Oct-13 05:00N 50°07' W 125°23'0 0.0
2017-Oct-13 04:30N 50°07' W 125°23'0 0.0
2017-Oct-13 04:00N 50°07' W 125°23'0 0.0
2017-Oct-13 03:30N 50°07' W 125°23'0 0.0
2017-Oct-13 03:00N 50°07' W 125°23'0 0.0
2017-Oct-13 02:30N 50°07' W 125°23'0 0.0
2017-Oct-13 02:00N 50°07' W 125°23'0 0.0
2017-Oct-13 01:30N 50°07' W 125°23'0 0.0
2017-Oct-13 01:00N 50°07' W 125°23'0 0.0
2017-Oct-13 00:30N 50°07' W 125°23'0 0.0
2017-Oct-13 00:00N 50°07' W 125°23'0 0.0
2017-Oct-12 23:30N 50°07' W 125°23'0 0.0
2017-Oct-12 23:00N 50°07' W 125°23'0 0.0
2017-Oct-12 22:30N 50°07' W 125°23'0 0.0
2017-Oct-12 22:00N 50°07' W 125°23'0 0.0
2017-Oct-12 21:30N 50°07' W 125°23'0 0.0
2017-Oct-12 21:00N 50°07' W 125°23'0 0.0
2017-Oct-12 20:30N 50°07' W 125°23'0 0.0
2017-Oct-12 20:00N 50°07' W 125°23'0 0.0
2017-Oct-12 19:30N 50°07' W 125°23'0 0.0
2017-Oct-12 19:00N 50°07' W 125°23'0 0.0
2017-Oct-12 18:30N 50°07' W 125°23'0 0.0
2017-Oct-12 18:00N 50°07' W 125°23'0 0.0
2017-Oct-12 17:30N 50°07' W 125°23'0 0.0
2017-Oct-12 17:00N 50°07' W 125°23'0 0.0
2017-Oct-12 16:30N 50°07' W 125°23'0 0.0
2017-Oct-12 16:00N 50°07' W 125°23'0 0.0
2017-Oct-12 15:30N 50°07' W 125°23'0 0.0
2017-Oct-12 15:00N 50°07' W 125°23'0 0.0
2017-Oct-12 14:30N 50°07' W 125°23'0 0.0
2017-Oct-12 14:00N 50°07' W 125°23'0 0.0
2017-Oct-12 13:30N 50°07' W 125°23'0 0.0
2017-Oct-12 13:00N 50°07' W 125°23'0 0.0
2017-Oct-12 12:30N 50°07' W 125°23'0 0.0
2017-Oct-12 12:00N 50°07' W 125°23'0 0.0
2017-Oct-12 11:30N 50°07' W 125°23'0 0.0
2017-Oct-12 11:00N 50°07' W 125°23'0 0.0
2017-Oct-12 10:30N 50°07' W 125°23'0 0.0
2017-Oct-12 10:00N 50°07' W 125°23'0 0.0
2017-Oct-12 09:30N 50°07' W 125°23'0 0.0
2017-Oct-12 09:00N 50°07' W 125°23'0 0.0
2017-Oct-12 08:30N 50°07' W 125°23'0 0.0
2017-Oct-12 08:00N 50°07' W 125°23'0 0.0
2017-Oct-12 07:30N 50°07' W 125°23'0 0.0
2017-Oct-12 07:00N 50°07' W 125°23'0 0.0
2017-Oct-12 06:30N 50°07' W 125°23'0 0.0
2017-Oct-12 06:00N 50°07' W 125°23'0 0.0
2017-Oct-12 05:30N 50°07' W 125°23'0 0.0
2017-Oct-12 05:00N 50°07' W 125°23'0 0.0
2017-Oct-12 04:30N 50°07' W 125°23'0 0.0
2017-Oct-12 04:00N 50°07' W 125°23'0 0.0
2017-Oct-12 03:30N 50°07' W 125°23'0 0.0
2017-Oct-12 03:00N 50°07' W 125°23'0 0.0
2017-Oct-12 02:30N 50°07' W 125°23'0 0.0
2017-Oct-12 02:00N 50°07' W 125°23'0 0.0
2017-Oct-12 01:30N 50°07' W 125°23'0 0.0
2017-Oct-12 01:00N 50°07' W 125°23'0 0.0
2017-Oct-12 00:30N 50°07' W 125°23'0 0.0
2017-Oct-12 00:00N 50°07' W 125°23'0 0.0
2017-Oct-11 23:30N 50°07' W 125°23'0 0.0
2017-Oct-11 23:00N 50°07' W 125°23'0 0.0
2017-Oct-11 22:30N 50°07' W 125°23'0 0.0
2017-Oct-11 22:00N 50°07' W 125°23'0 0.0
2017-Oct-11 21:30N 50°07' W 125°23'0 0.0
2017-Oct-11 21:00N 50°07' W 125°23'0 0.0
2017-Oct-11 20:30N 50°07' W 125°23'0 0.0
2017-Oct-11 20:00N 50°07' W 125°23'0 0.0
2017-Oct-11 19:30N 50°07' W 125°23'0 0.0
2017-Oct-11 19:00N 50°07' W 125°23'0 0.0
2017-Oct-11 18:30N 50°07' W 125°23'0 0.0
2017-Oct-11 18:00N 50°07' W 125°23'0 0.0
2017-Oct-11 17:30N 50°07' W 125°23'0 0.0
2017-Oct-11 17:00N 50°07' W 125°23'0 0.0
2017-Oct-11 00:00N 50°07' W 125°23'0 0.0
2017-Oct-10 23:30N 50°07' W 125°23'0 0.0
2017-Oct-10 23:00N 50°07' W 125°23'0 0.0
2017-Oct-10 22:30N 50°07' W 125°23'0 0.0
2017-Oct-10 22:00N 50°07' W 125°23'0 0.0
2017-Oct-10 21:30N 50°07' W 125°23'0 0.0
2017-Oct-10 21:00N 50°07' W 125°23'0 0.0
2017-Oct-10 20:30N 50°07' W 125°23'0 0.0
2017-Oct-10 20:00N 50°07' W 125°23'0 0.0
2017-Oct-10 19:30N 50°07' W 125°23'0 0.0
2017-Oct-10 19:00N 50°07' W 125°23'0 0.0
2017-Oct-10 18:30N 50°07' W 125°23'0 0.0
2017-Oct-10 18:00N 50°07' W 125°23'0 0.0
2017-Oct-10 17:30N 50°07' W 125°23'0 0.0
2017-Oct-10 17:00N 50°07' W 125°23'0 0.0
2017-Oct-10 16:30N 50°07' W 125°23'0 0.0
2017-Oct-10 16:00N 50°07' W 125°23'0 0.0
2017-Oct-10 15:30N 50°07' W 125°23'0 0.0
2017-Oct-10 15:00N 50°07' W 125°23'0 0.0
2017-Oct-10 14:00N 50°07' W 125°23'0 0.0
2017-Oct-10 13:30N 50°07' W 125°23'0 0.0
2017-Oct-10 13:00N 50°07' W 125°23'0 0.0
2017-Oct-10 12:30N 50°07' W 125°23'0 0.0
2017-Oct-10 12:00N 50°07' W 125°23'0 0.0
2017-Oct-10 11:30N 50°07' W 125°23'0 0.0
2017-Oct-10 11:00N 50°07' W 125°23'0 0.0
2017-Oct-10 10:30N 50°07' W 125°23'0 0.0
2017-Oct-10 10:00N 50°07' W 125°23'0 0.0
2017-Oct-10 09:30N 50°07' W 125°23'0 0.0
2017-Oct-10 09:00N 50°07' W 125°23'0 0.0
2017-Oct-10 08:30N 50°07' W 125°23'0 0.0
2017-Oct-10 08:00N 50°07' W 125°23'0 0.0
2017-Oct-10 07:30N 50°07' W 125°23'0 0.0
2017-Oct-10 07:00N 50°07' W 125°23'0 0.0
2017-Oct-10 06:30N 50°07' W 125°23'0 0.0
2017-Oct-10 06:00N 50°07' W 125°23'0 0.0
2017-Oct-10 05:30N 50°07' W 125°23'0 0.0
2017-Oct-10 05:00N 50°07' W 125°23'0 0.0
2017-Oct-10 04:30N 50°07' W 125°23'0 0.0
2017-Oct-10 04:00N 50°07' W 125°23'0 0.0
2017-Oct-10 03:30N 50°07' W 125°23'0 0.0
2017-Oct-10 03:00N 50°07' W 125°23'0 0.0
2017-Oct-10 02:30N 50°07' W 125°23'0 0.0
2017-Oct-10 02:00N 50°07' W 125°23'0 0.0
2017-Oct-10 01:30N 50°07' W 125°23'0 0.0
2017-Oct-10 01:00N 50°07' W 125°23'0 0.0
2017-Oct-10 00:30N 50°07' W 125°23'0 0.0
2017-Oct-10 00:00N 50°07' W 125°23'0 0.0
2017-Oct-09 23:30N 50°07' W 125°23'0 0.0
2017-Oct-09 23:00N 50°07' W 125°23'0 0.0
2017-Oct-09 22:30N 50°07' W 125°23'0 0.0
2017-Oct-09 22:00N 50°07' W 125°23'0 0.0
2017-Oct-09 21:30N 50°07' W 125°23'0 0.0
2017-Oct-09 21:00N 50°07' W 125°23'0 0.0
2017-Oct-09 20:30N 50°07' W 125°23'0 0.0
2017-Oct-09 20:00N 50°07' W 125°23'0 0.0
2017-Oct-09 19:30N 50°07' W 125°23'0 0.0
2017-Oct-09 19:00N 50°07' W 125°23'0 0.0
2017-Oct-09 18:30N 50°07' W 125°23'0 0.0
2017-Oct-09 18:00N 50°07' W 125°23'0 0.0
2017-Oct-09 17:30N 50°07' W 125°23'0 0.0
2017-Oct-09 17:00N 50°07' W 125°23'0 0.0
2017-Oct-09 16:30N 50°07' W 125°23'0 0.0
2017-Oct-09 16:00N 50°07' W 125°23'0 0.0
2017-Oct-09 15:30N 50°07' W 125°23'0 0.0
2017-Oct-09 15:00N 50°07' W 125°23'0 0.0
2017-Oct-09 14:30N 50°07' W 125°23'0 0.0
2017-Oct-09 14:00N 50°07' W 125°23'0 0.0
2017-Oct-09 13:30N 50°07' W 125°23'0 0.0
2017-Oct-09 13:00N 50°07' W 125°23'0 0.0
2017-Oct-09 12:30N 50°07' W 125°23'0 0.0
2017-Oct-09 12:00N 50°07' W 125°23'0 0.0
2017-Oct-09 11:30N 50°07' W 125°23'0 0.0
2017-Oct-09 11:00N 50°07' W 125°23'  
Track history (hours):
 
Tides and Currents Weather Stations Pressure Air Temp Water Temp Dewpoint Dewpoint Depression Visibility Wind Speed Wind Dir Waves Ship Positions

Belle Isle Sound

Last reported at 2017-Oct-19 10:58 UTC. Time now 2017-Oct-19 11:26 UTC.
Position N 50°53' W 127°03'.

; draft 2.5 m.

Type: Tug. MMSI: 316020742.

Date/timePositionNaut miles runAvg speedWind from/ knotsBaromVisibWave heightAir tempDewpointWater temp
2017-Oct-19 10:58N 50°53' W 127°03'0 0.0
2017-Oct-19 09:59N 50°53' W 127°03'0 0.0
2017-Oct-19 09:22N 50°53' W 127°03'0 0.0
2017-Oct-19 08:57N 50°53' W 127°03'0 0.0
2017-Oct-19 08:11N 50°53' W 127°03'0 0.0
2017-Oct-19 08:00N 50°53' W 127°03'0 0.0
2017-Oct-19 07:30N 50°53' W 127°03'0 0.0
2017-Oct-19 07:00N 50°53' W 127°03'0 0.0
2017-Oct-19 06:30N 50°53' W 127°03'0 0.0
2017-Oct-19 05:57N 50°53' W 127°03'0 0.0
2017-Oct-19 05:29N 50°53' W 127°03'0 0.0
2017-Oct-19 04:25N 50°53' W 127°03'0 0.0
2017-Oct-19 02:51N 50°53' W 127°03'0 0.1
2017-Oct-19 02:30N 50°53' W 127°03'0 0.0
2017-Oct-19 02:00N 50°53' W 127°03'0 0.0
2017-Oct-19 01:30N 50°53' W 127°03'0 0.0
2017-Oct-19 01:00N 50°53' W 127°03'0 0.0
2017-Oct-19 00:29N 50°53' W 127°03'0 0.0
2017-Oct-19 00:00N 50°53' W 127°03'0 0.0
2017-Oct-18 23:30N 50°53' W 127°03'2 4.2
2017-Oct-18 22:59N 50°54' W 126°59'4 6.5
2017-Oct-18 22:27N 50°54' W 126°54'17 0.7
2017-Oct-17 21:48N 50°45' W 126°30'1 0.9
2017-Oct-17 20:28N 50°46' W 126°29'47 2.3
2017-Oct-16 23:52N 50°20' W 125°27'4 9.0
2017-Oct-16 23:26N 50°17' W 125°24'4 8.9
2017-Oct-16 23:00N 50°13' W 125°23'4 8.3
2017-Oct-16 22:30N 50°09' W 125°22'2 3.9
2017-Oct-16 22:00N 50°07' W 125°23'0 0.0
2017-Oct-16 21:30N 50°07' W 125°23'0 0.0
2017-Oct-16 21:00N 50°07' W 125°23'0 0.0
2017-Oct-16 20:30N 50°07' W 125°23'0 0.0
2017-Oct-16 20:00N 50°07' W 125°23'0 0.0
2017-Oct-16 19:30N 50°07' W 125°23'0 0.0
2017-Oct-16 19:00N 50°07' W 125°23'0 0.0
2017-Oct-16 18:30N 50°07' W 125°23'0 0.0
2017-Oct-16 18:00N 50°07' W 125°23'0 0.0
2017-Oct-16 17:30N 50°07' W 125°23'0 0.0
2017-Oct-16 17:00N 50°07' W 125°23'0 0.0
2017-Oct-16 16:30N 50°07' W 125°23'0 0.0
2017-Oct-16 16:00N 50°07' W 125°23'0 0.0
2017-Oct-16 15:30N 50°07' W 125°23'1 2.3
2017-Oct-16 15:00N 50°08' W 125°21'5 4.9
2017-Oct-16 14:00N 50°12' W 125°22'3 6.5
2017-Oct-16 13:28N 50°16' W 125°23'3 6.4
2017-Oct-16 13:00N 50°19' W 125°25'6 0.1
2017-Oct-14 21:37N 50°22' W 125°33'4 9.3
2017-Oct-14 21:11N 50°20' W 125°27'1 8.2
2017-Oct-14 21:00N 50°19' W 125°25'4 8.5
2017-Oct-14 20:30N 50°15' W 125°23'4 8.1
2017-Oct-14 20:00N 50°11' W 125°22'3 6.5
2017-Oct-14 19:30N 50°08' W 125°21'1 2.0
2017-Oct-14 19:00N 50°07' W 125°23'0 0.0
2017-Oct-14 18:30N 50°07' W 125°23'0 0.0
2017-Oct-14 18:00N 50°07' W 125°23'0 0.0
2017-Oct-14 17:30N 50°07' W 125°23'0 0.0
2017-Oct-14 17:00N 50°07' W 125°23'0 0.0
2017-Oct-14 16:30N 50°07' W 125°23'0 0.1
2017-Oct-14 16:00N 50°07' W 125°23'0 0.0
2017-Oct-14 15:30N 50°07' W 125°23'0 0.0
2017-Oct-14 15:00N 50°07' W 125°23'0 0.0
2017-Oct-14 14:30N 50°07' W 125°23'0 0.2
2017-Oct-14 14:00N 50°07' W 125°23'0 0.1
2017-Oct-14 13:30N 50°07' W 125°23'0 0.0
2017-Oct-14 13:00N 50°07' W 125°23'0 0.0
2017-Oct-14 12:30N 50°07' W 125°23'0 0.0
2017-Oct-14 12:00N 50°07' W 125°23'0 0.0
2017-Oct-14 11:30N 50°07' W 125°23'0 0.0
2017-Oct-14 11:00N 50°07' W 125°23'0 0.0
2017-Oct-14 10:30N 50°07' W 125°23'0 0.0
2017-Oct-14 10:00N 50°07' W 125°23'0 0.0
2017-Oct-14 09:30N 50°07' W 125°23'0 0.0
2017-Oct-14 09:00N 50°07' W 125°23'0 0.0
2017-Oct-14 08:30N 50°07' W 125°23'0 0.0
2017-Oct-14 08:00N 50°07' W 125°23'0 0.0
2017-Oct-14 07:30N 50°07' W 125°23'0 0.0
2017-Oct-14 07:00N 50°07' W 125°23'0 0.0
2017-Oct-14 06:30N 50°07' W 125°23'0 0.0
2017-Oct-14 06:00N 50°07' W 125°23'0 0.0
2017-Oct-14 05:30N 50°07' W 125°23'0 0.0
2017-Oct-14 05:00N 50°07' W 125°23'0 0.0
2017-Oct-14 04:30N 50°07' W 125°23'0 0.0
2017-Oct-14 04:00N 50°07' W 125°23'0 0.0
2017-Oct-14 03:30N 50°07' W 125°23'0 0.0
2017-Oct-14 03:00N 50°07' W 125°23'0 0.0
2017-Oct-14 02:30N 50°07' W 125°23'0 0.0
2017-Oct-14 02:00N 50°07' W 125°23'0 0.0
2017-Oct-14 01:30N 50°07' W 125°23'0 0.0
2017-Oct-14 00:58N 50°07' W 125°23'0 0.0
2017-Oct-14 00:28N 50°07' W 125°23'0 0.0
2017-Oct-14 00:00N 50°07' W 125°23'0 0.0
2017-Oct-13 23:30N 50°07' W 125°23'0 0.0
2017-Oct-13 23:00N 50°07' W 125°23'0 0.0
2017-Oct-13 22:30N 50°07' W 125°23'0 0.0
2017-Oct-13 22:00N 50°07' W 125°23'0 0.0
2017-Oct-13 21:30N 50°07' W 125°23'0 0.0
2017-Oct-13 21:00N 50°07' W 125°23'0 0.0
2017-Oct-13 20:30N 50°07' W 125°23'0 0.0
2017-Oct-13 20:00N 50°07' W 125°23'0 0.0
2017-Oct-13 19:30N 50°07' W 125°23'0 0.0
2017-Oct-13 19:00N 50°07' W 125°23'0 0.0
2017-Oct-13 18:30N 50°07' W 125°23'0 0.0
2017-Oct-13 18:00N 50°07' W 125°23'0 0.0
2017-Oct-13 17:30N 50°07' W 125°23'0 0.0
2017-Oct-13 17:00N 50°07' W 125°23'0 0.0
2017-Oct-13 16:30N 50°07' W 125°23'0 0.0
2017-Oct-13 16:00N 50°07' W 125°23'0 0.0
2017-Oct-13 15:30N 50°07' W 125°23'0 0.0
2017-Oct-13 15:00N 50°07' W 125°23'0 0.0
2017-Oct-13 14:30N 50°07' W 125°23'0 0.0
2017-Oct-13 14:00N 50°07' W 125°23'0 0.0
2017-Oct-13 13:30N 50°07' W 125°23'0 0.0
2017-Oct-13 13:00N 50°07' W 125°23'0 0.0
2017-Oct-13 12:30N 50°07' W 125°23'0 0.0
2017-Oct-13 12:00N 50°07' W 125°23'0 0.0
2017-Oct-13 11:30N 50°07' W 125°23'0 0.0
2017-Oct-13 11:00N 50°07' W 125°23'0 0.0
2017-Oct-13 10:30N 50°07' W 125°23'0 0.0
2017-Oct-13 10:00N 50°07' W 125°23'0 0.0
2017-Oct-13 09:30N 50°07' W 125°23'0 0.0
2017-Oct-13 09:00N 50°07' W 125°23'0 0.0
2017-Oct-13 08:30N 50°07' W 125°23'0 0.0
2017-Oct-13 08:00N 50°07' W 125°23'0 0.0
2017-Oct-13 07:30N 50°07' W 125°23'0 0.0
2017-Oct-13 07:00N 50°07' W 125°23'0 0.0
2017-Oct-13 06:30N 50°07' W 125°23'0 0.0
2017-Oct-13 06:00N 50°07' W 125°23'0 0.0
2017-Oct-13 05:30N 50°07' W 125°23'0 0.0
2017-Oct-13 05:00N 50°07' W 125°23'0 0.0
2017-Oct-13 04:30N 50°07' W 125°23'0 0.0
2017-Oct-13 04:00N 50°07' W 125°23'0 0.0
2017-Oct-13 03:30N 50°07' W 125°23'0 0.0
2017-Oct-13 03:00N 50°07' W 125°23'0 0.0
2017-Oct-13 02:30N 50°07' W 125°23'0 0.0
2017-Oct-13 02:00N 50°07' W 125°23'0 0.0
2017-Oct-13 01:30N 50°07' W 125°23'0 0.0
2017-Oct-13 01:00N 50°07' W 125°23'0 0.0
2017-Oct-13 00:30N 50°07' W 125°23'0 0.0
2017-Oct-13 00:00N 50°07' W 125°23'0 0.0
2017-Oct-12 23:30N 50°07' W 125°23'0 0.0
2017-Oct-12 23:00N 50°07' W 125°23'0 0.0
2017-Oct-12 22:30N 50°07' W 125°23'0 0.0
2017-Oct-12 22:00N 50°07' W 125°23'0 0.0
2017-Oct-12 21:30N 50°07' W 125°23'0 0.0
2017-Oct-12 21:00N 50°07' W 125°23'0 0.0
2017-Oct-12 20:30N 50°07' W 125°23'0 0.0
2017-Oct-12 20:00N 50°07' W 125°23'0 0.0
2017-Oct-12 19:30N 50°07' W 125°23'0 0.0
2017-Oct-12 19:00N 50°07' W 125°23'0 0.0
2017-Oct-12 18:30N 50°07' W 125°23'0 0.0
2017-Oct-12 18:00N 50°07' W 125°23'0 0.0
2017-Oct-12 17:30N 50°07' W 125°23'0 0.0
2017-Oct-12 17:00N 50°07' W 125°23'0 0.0
2017-Oct-12 16:30N 50°07' W 125°23'0 0.0
2017-Oct-12 16:00N 50°07' W 125°23'0 0.0
2017-Oct-12 15:30N 50°07' W 125°23'0 0.0
2017-Oct-12 15:00N 50°07' W 125°23'0 0.0
2017-Oct-12 14:30N 50°07' W 125°23'0 0.0
2017-Oct-12 14:00N 50°07' W 125°23'0 0.0
2017-Oct-12 13:30N 50°07' W 125°23'0 0.0
2017-Oct-12 13:00N 50°07' W 125°23'0 0.0
2017-Oct-12 12:30N 50°07' W 125°23'0 0.0
2017-Oct-12 12:00N 50°07' W 125°23'0 0.0
2017-Oct-12 11:30N 50°07' W 125°23'0 0.0
2017-Oct-12 11:00N 50°07' W 125°23'0 0.0
2017-Oct-12 10:30N 50°07' W 125°23'0 0.0
2017-Oct-12 10:00N 50°07' W 125°23'0 0.0
2017-Oct-12 09:30N 50°07' W 125°23'0 0.0
2017-Oct-12 09:00N 50°07' W 125°23'0 0.0
2017-Oct-12 08:30N 50°07' W 125°23'0 0.0
2017-Oct-12 08:00N 50°07' W 125°23'0 0.0
2017-Oct-12 07:30N 50°07' W 125°23'0 0.0
2017-Oct-12 07:00N 50°07' W 125°23'0 0.0
2017-Oct-12 06:30N 50°07' W 125°23'0 0.0
2017-Oct-12 06:00N 50°07' W 125°23'0 0.0
2017-Oct-12 05:30N 50°07' W 125°23'0 0.0
2017-Oct-12 05:00N 50°07' W 125°23'0 0.0
2017-Oct-12 04:30N 50°07' W 125°23'0 0.0
2017-Oct-12 04:00N 50°07' W 125°23'0 0.0
2017-Oct-12 03:30N 50°07' W 125°23'0 0.0
2017-Oct-12 03:00N 50°07' W 125°23'0 0.0
2017-Oct-12 02:30N 50°07' W 125°23'0 0.0
2017-Oct-12 02:00N 50°07' W 125°23'0 0.0
2017-Oct-12 01:30N 50°07' W 125°23'0 0.0
2017-Oct-12 01:00N 50°07' W 125°23'0 0.0
2017-Oct-12 00:30N 50°07' W 125°23'0 0.0
2017-Oct-12 00:00N 50°07' W 125°23'0 0.0
2017-Oct-11 23:30N 50°07' W 125°23'0 0.0
2017-Oct-11 23:00N 50°07' W 125°23'0 0.0
2017-Oct-11 22:30N 50°07' W 125°23'0 0.0
2017-Oct-11 22:00N 50°07' W 125°23'0 0.0
2017-Oct-11 21:30N 50°07' W 125°23'0 0.0
2017-Oct-11 21:00N 50°07' W 125°23'0 0.0
2017-Oct-11 20:30N 50°07' W 125°23'0 0.0
2017-Oct-11 20:00N 50°07' W 125°23'0 0.0
2017-Oct-11 19:30N 50°07' W 125°23'0 0.0
2017-Oct-11 19:00N 50°07' W 125°23'0 0.0
2017-Oct-11 18:30N 50°07' W 125°23'0 0.0
2017-Oct-11 18:00N 50°07' W 125°23'0 0.0
2017-Oct-11 17:30N 50°07' W 125°23'0 0.0
2017-Oct-11 17:00N 50°07' W 125°23'0 0.0
2017-Oct-11 00:00N 50°07' W 125°23'0 0.0
2017-Oct-10 23:30N 50°07' W 125°23'0 0.0
2017-Oct-10 23:00N 50°07' W 125°23'0 0.0
2017-Oct-10 22:30N 50°07' W 125°23'0 0.0
2017-Oct-10 22:00N 50°07' W 125°23'0 0.0
2017-Oct-10 21:30N 50°07' W 125°23'0 0.0
2017-Oct-10 21:00N 50°07' W 125°23'0 0.0
2017-Oct-10 20:30N 50°07' W 125°23'0 0.0
2017-Oct-10 20:00N 50°07' W 125°23'0 0.0
2017-Oct-10 19:30N 50°07' W 125°23'0 0.0
2017-Oct-10 19:00N 50°07' W 125°23'0 0.0
2017-Oct-10 18:30N 50°07' W 125°23'0 0.0
2017-Oct-10 18:00N 50°07' W 125°23'0 0.0
2017-Oct-10 17:30N 50°07' W 125°23'0 0.0
2017-Oct-10 17:00N 50°07' W 125°23'0 0.0
2017-Oct-10 16:30N 50°07' W 125°23'0 0.0
2017-Oct-10 16:00N 50°07' W 125°23'0 0.0
2017-Oct-10 15:30N 50°07' W 125°23'0 0.0
2017-Oct-10 15:00N 50°07' W 125°23'0 0.0
2017-Oct-10 14:00N 50°07' W 125°23'0 0.0
2017-Oct-10 13:30N 50°07' W 125°23'0 0.0
2017-Oct-10 13:00N 50°07' W 125°23'0 0.0
2017-Oct-10 12:30N 50°07' W 125°23'0 0.0
2017-Oct-10 12:00N 50°07' W 125°23'0 0.0
2017-Oct-10 11:30N 50°07' W 125°23'0 0.0
2017-Oct-10 11:00N 50°07' W 125°23'0 0.0
2017-Oct-10 10:30N 50°07' W 125°23'0 0.0
2017-Oct-10 10:00N 50°07' W 125°23'0 0.0
2017-Oct-10 09:30N 50°07' W 125°23'0 0.0
2017-Oct-10 09:00N 50°07' W 125°23'0 0.0
2017-Oct-10 08:30N 50°07' W 125°23'0 0.0
2017-Oct-10 08:00N 50°07' W 125°23'0 0.0
2017-Oct-10 07:30N 50°07' W 125°23'0 0.0
2017-Oct-10 07:00N 50°07' W 125°23'0 0.0
2017-Oct-10 06:30N 50°07' W 125°23'0 0.0
2017-Oct-10 06:00N 50°07' W 125°23'0 0.0
2017-Oct-10 05:30N 50°07' W 125°23'0 0.0
2017-Oct-10 05:00N 50°07' W 125°23'0 0.0
2017-Oct-10 04:30N 50°07' W 125°23'0 0.0
2017-Oct-10 04:00N 50°07' W 125°23'0 0.0
2017-Oct-10 03:30N 50°07' W 125°23'0 0.0
2017-Oct-10 03:00N 50°07' W 125°23'0 0.0
2017-Oct-10 02:30N 50°07' W 125°23'0 0.0
2017-Oct-10 02:00N 50°07' W 125°23'0 0.0
2017-Oct-10 01:30N 50°07' W 125°23'0 0.0
2017-Oct-10 01:00N 50°07' W 125°23'0 0.0
2017-Oct-10 00:30N 50°07' W 125°23'0 0.0
2017-Oct-10 00:00N 50°07' W 125°23'0 0.0
2017-Oct-09 23:30N 50°07' W 125°23'0 0.0
2017-Oct-09 23:00N 50°07' W 125°23'0 0.0
2017-Oct-09 22:30N 50°07' W 125°23'0 0.0
2017-Oct-09 22:00N 50°07' W 125°23'0 0.0
2017-Oct-09 21:30N 50°07' W 125°23'0 0.0
2017-Oct-09 21:00N 50°07' W 125°23'0 0.0
2017-Oct-09 20:30N 50°07' W 125°23'0 0.0
2017-Oct-09 20:00N 50°07' W 125°23'0 0.0
2017-Oct-09 19:30N 50°07' W 125°23'0 0.0
2017-Oct-09 19:00N 50°07' W 125°23'0 0.0
2017-Oct-09 18:30N 50°07' W 125°23'0 0.0
2017-Oct-09 18:00N 50°07' W 125°23'0 0.0
2017-Oct-09 17:30N 50°07' W 125°23'0 0.0
2017-Oct-09 17:00N 50°07' W 125°23'0 0.0
2017-Oct-09 16:30N 50°07' W 125°23'0 0.0
2017-Oct-09 16:00N 50°07' W 125°23'0 0.0
2017-Oct-09 15:30N 50°07' W 125°23'0 0.0
2017-Oct-09 15:00N 50°07' W 125°23'0 0.0
2017-Oct-09 14:30N 50°07' W 125°23'0 0.0
2017-Oct-09 14:00N 50°07' W 125°23'0 0.0
2017-Oct-09 13:30N 50°07' W 125°23'0 0.0
2017-Oct-09 13:00N 50°07' W 125°23'0 0.0
2017-Oct-09 12:30N 50°07' W 125°23'0 0.0
2017-Oct-09 12:00N 50°07' W 125°23'0 0.0
2017-Oct-09 11:30N 50°07' W 125°23'0 0.0
2017-Oct-09 11:00N 50°07' W 125°23'  

Dump ship's entire track history